KMKO/MKO METAR and TAF weather

Enter ICAO airport designator
Station Type Date Time Source
KMKO METAR 2020/04/02 01:53 UTC NOAA

KMKO 020153Z AUTO 15006KT 10SM CLR 18/08 A2990 RMK AO2 SLP122 T01780078


Station Type Date Time Source
KMKO Decoded METAR 2020/04/02 01:53 UTC NOAA

MUSKOGEE DAVIS FIELD, OK, United States (KMKO) 35-39N 95-22W 185M
Apr 01, 2020 - 09:53 PM EDT / 2020.04.02 0153 UTC
Wind: from the SSE (150 degrees) at 7 MPH (6 KT):0
Visibility: 10 mile(s):0
Sky conditions: clear
Temperature: 64.0 F (17.8 C)
Dew Point: 46.0 F (7.8 C)
Relative Humidity: 51%
Pressure (altimeter): 29.9 in. Hg (1012 hPa)
ob: KMKO 020153Z AUTO 15006KT 10SM CLR 18/08 A2990 RMK AO2 SLP122 T01780078
cycle: 2

Station Type Date Time Source
KMKO TAF UTC NOAA

Error!

Example: see airport list